sensor_id;sensor_type;location;lat;lon;timestamp;P1;durP1;ratioP1;P2;durP2;ratioP2
20138;SDS011;10230;51.502;10.800;2022-07-03T00:01:46;2.20;;;1.85;;
20138;SDS011;10230;51.502;10.800;2022-07-03T00:04:12;2.88;;;1.58;;
20138;SDS011;10230;51.502;10.800;2022-07-03T00:06:38;3.13;;;1.50;;
20138;SDS011;10230;51.502;10.800;2022-07-03T00:09:05;3.30;;;1.70;;
20138;SDS011;10230;51.502;10.800;2022-07-03T00:11:31;2.10;;;1.73;;
20138;SDS011;10230;51.502;10.800;2022-07-03T00:13:57;2.55;;;1.67;;
20138;SDS011;10230;51.502;10.800;2022-07-03T00:16:23;2.85;;;1.52;;
20138;SDS011;10230;51.502;10.800;2022-07-03T00:18:50;1.77;;;1.65;;
20138;SDS011;10230;51.502;10.800;2022-07-03T00:21:20;1.67;;;1.08;;
20138;SDS011;10230;51.502;10.800;2022-07-03T00:23:50;2.13;;;1.40;;
20138;SDS011;10230;51.502;10.800;2022-07-03T00:26:18;2.53;;;1.35;;
20138;SDS011;10230;51.502;10.800;2022-07-03T00:28:45;2.72;;;1.35;;
20138;SDS011;10230;51.502;10.800;2022-07-03T00:31:11;3.33;;;1.60;;
20138;SDS011;10230;51.502;10.800;2022-07-03T00:33:38;3.42;;;1.33;;
20138;SDS011;10230;51.502;10.800;2022-07-03T00:36:04;1.60;;;1.50;;
20138;SDS011;10230;51.502;10.800;2022-07-03T00:38:30;1.23;;;1.00;;
20138;SDS011;10230;51.502;10.800;2022-07-03T00:40:56;1.83;;;1.25;;
20138;SDS011;10230;51.502;10.800;2022-07-03T00:43:23;2.42;;;1.33;;
20138;SDS011;10230;51.502;10.800;2022-07-03T00:45:51;2.33;;;1.20;;
20138;SDS011;10230;51.502;10.800;2022-07-03T00:48:19;3.30;;;1.50;;
20138;SDS011;10230;51.502;10.800;2022-07-03T00:50:47;1.60;;;1.45;;
20138;SDS011;10230;51.502;10.800;2022-07-03T00:53:13;1.27;;;1.17;;
20138;SDS011;10230;51.502;10.800;2022-07-03T00:55:43;2.75;;;1.27;;
20138;SDS011;10230;51.502;10.800;2022-07-03T00:58:14;1.50;;;1.20;;
20138;SDS011;10230;51.502;10.800;2022-07-03T01:00:41;2.60;;;1.27;;
20138;SDS011;10230;51.502;10.800;2022-07-03T01:03:09;2.08;;;1.25;;
20138;SDS011;10230;51.502;10.800;2022-07-03T01:05:39;3.13;;;1.27;;
20138;SDS011;10230;51.502;10.800;2022-07-03T01:10:47;5.22;;;1.13;;
20138;SDS011;10230;51.502;10.800;2022-07-03T01:18:16;3.78;;;1.33;;
20138;SDS011;10230;51.502;10.800;2022-07-03T01:20:48;1.50;;;1.33;;
20138;SDS011;10230;51.502;10.800;2022-07-03T01:26:10;1.48;;;1.25;;
20138;SDS011;10230;51.502;10.800;2022-07-03T01:28:38;1.45;;;1.35;;
20138;SDS011;10230;51.502;10.800;2022-07-03T01:31:07;1.75;;;1.08;;
20138;SDS011;10230;51.502;10.800;2022-07-03T01:33:35;1.58;;;1.10;;
20138;SDS011;10230;51.502;10.800;2022-07-03T01:36:07;2.33;;;1.30;;
20138;SDS011;10230;51.502;10.800;2022-07-03T01:38:37;2.67;;;1.60;;
20138;SDS011;10230;51.502;10.800;2022-07-03T01:41:07;2.28;;;1.40;;
20138;SDS011;10230;51.502;10.800;2022-07-03T01:43:34;1.52;;;1.42;;
20138;SDS011;10230;51.502;10.800;2022-07-03T01:46:00;3.60;;;1.48;;
20138;SDS011;10230;51.502;10.800;2022-07-03T01:48:28;2.25;;;1.52;;
20138;SDS011;10230;51.502;10.800;2022-07-03T01:50:55;3.75;;;1.67;;
20138;SDS011;10230;51.502;10.800;2022-07-03T01:53:23;2.97;;;1.30;;
20138;SDS011;10230;51.502;10.800;2022-07-03T01:55:50;2.08;;;1.60;;
20138;SDS011;10230;51.502;10.800;2022-07-03T01:58:20;2.55;;;1.52;;
20138;SDS011;10230;51.502;10.800;2022-07-03T02:00:47;1.60;;;1.50;;
20138;SDS011;10230;51.502;10.800;2022-07-03T02:03:19;2.13;;;1.80;;
20138;SDS011;10230;51.502;10.800;2022-07-03T02:05:47;2.15;;;1.55;;
20138;SDS011;10230;51.502;10.800;2022-07-03T02:16:18;2.53;;;1.70;;
20138;SDS011;10230;51.502;10.800;2022-07-03T02:18:45;2.28;;;1.63;;
20138;SDS011;10230;51.502;10.800;2022-07-03T02:21:18;3.95;;;1.80;;
20138;SDS011;10230;51.502;10.800;2022-07-03T02:23:53;3.97;;;2.05;;
20138;SDS011;10230;51.502;10.800;2022-07-03T02:26:21;2.08;;;1.70;;
20138;SDS011;10230;51.502;10.800;2022-07-03T02:28:56;2.83;;;2.28;;
20138;SDS011;10230;51.502;10.800;2022-07-03T02:31:24;4.05;;;2.72;;
20138;SDS011;10230;51.502;10.800;2022-07-03T02:33:56;3.00;;;2.58;;
20138;SDS011;10230;51.502;10.800;2022-07-03T02:36:23;3.55;;;2.10;;
20138;SDS011;10230;51.502;10.800;2022-07-03T02:38:52;3.00;;;2.67;;
20138;SDS011;10230;51.502;10.800;2022-07-03T02:46:49;3.55;;;2.30;;
20138;SDS011;10230;51.502;10.800;2022-07-03T02:51:45;3.08;;;2.72;;
20138;SDS011;10230;51.502;10.800;2022-07-03T02:54:13;2.50;;;2.25;;
20138;SDS011;10230;51.502;10.800;2022-07-03T02:59:13;3.80;;;2.08;;
20138;SDS011;10230;51.502;10.800;2022-07-03T03:01:46;5.45;;;2.70;;
20138;SDS011;10230;51.502;10.800;2022-07-03T03:04:25;3.10;;;2.42;;
20138;SDS011;10230;51.502;10.800;2022-07-03T03:06:55;2.13;;;1.92;;
20138;SDS011;10230;51.502;10.800;2022-07-03T03:09:26;4.05;;;2.20;;
20138;SDS011;10230;51.502;10.800;2022-07-03T03:11:52;2.83;;;2.10;;
20138;SDS011;10230;51.502;10.800;2022-07-03T03:14:21;2.78;;;2.03;;
20138;SDS011;10230;51.502;10.800;2022-07-03T03:16:53;2.25;;;2.00;;
20138;SDS011;10230;51.502;10.800;2022-07-03T03:19:22;2.50;;;1.98;;
20138;SDS011;10230;51.502;10.800;2022-07-03T03:21:58;5.63;;;2.17;;
20138;SDS011;10230;51.502;10.800;2022-07-03T03:24:26;3.00;;;2.28;;
20138;SDS011;10230;51.502;10.800;2022-07-03T03:26:53;2.03;;;1.70;;
20138;SDS011;10230;51.502;10.800;2022-07-03T03:29:19;2.13;;;1.80;;
20138;SDS011;10230;51.502;10.800;2022-07-03T03:31:45;2.72;;;2.00;;
20138;SDS011;10230;51.502;10.800;2022-07-03T03:34:11;2.03;;;1.90;;
20138;SDS011;10230;51.502;10.800;2022-07-03T03:36:38;4.47;;;2.40;;
20138;SDS011;10230;51.502;10.800;2022-07-03T03:39:05;2.05;;;1.90;;
20138;SDS011;10230;51.502;10.800;2022-07-03T03:41:32;2.78;;;2.00;;
20138;SDS011;10230;51.502;10.800;2022-07-03T03:43:58;2.20;;;1.97;;
20138;SDS011;10230;51.502;10.800;2022-07-03T03:46:24;2.10;;;1.90;;
20138;SDS011;10230;51.502;10.800;2022-07-03T03:48:50;2.65;;;2.00;;
20138;SDS011;10230;51.502;10.800;2022-07-03T03:51:16;2.17;;;2.05;;
20138;SDS011;10230;51.502;10.800;2022-07-03T03:53:42;2.38;;;2.17;;
20138;SDS011;10230;51.502;10.800;2022-07-03T03:56:10;4.47;;;1.92;;
20138;SDS011;10230;51.502;10.800;2022-07-03T03:58:37;3.88;;;2.25;;
20138;SDS011;10230;51.502;10.800;2022-07-03T04:01:04;2.55;;;2.25;;
20138;SDS011;10230;51.502;10.800;2022-07-03T04:03:31;3.78;;;1.63;;
20138;SDS011;10230;51.502;10.800;2022-07-03T04:05:57;2.05;;;1.67;;
20138;SDS011;10230;51.502;10.800;2022-07-03T04:08:24;2.08;;;1.88;;
20138;SDS011;10230;51.502;10.800;2022-07-03T04:10:50;1.63;;;1.52;;
20138;SDS011;10230;51.502;10.800;2022-07-03T04:13:16;2.05;;;1.70;;
20138;SDS011;10230;51.502;10.800;2022-07-03T04:15:45;2.40;;;1.90;;
20138;SDS011;10230;51.502;10.800;2022-07-03T04:18:11;2.83;;;1.80;;
20138;SDS011;10230;51.502;10.800;2022-07-03T04:20:37;5.25;;;2.70;;
20138;SDS011;10230;51.502;10.800;2022-07-03T04:23:04;5.28;;;2.53;;
20138;SDS011;10230;51.502;10.800;2022-07-03T04:25:30;2.40;;;2.20;;
20138;SDS011;10230;51.502;10.800;2022-07-03T04:27:56;3.05;;;2.60;;
20138;SDS011;10230;51.502;10.800;2022-07-03T04:30:22;3.63;;;2.70;;
20138;SDS011;10230;51.502;10.800;2022-07-03T04:32:48;4.78;;;3.15;;
20138;SDS011;10230;51.502;10.800;2022-07-03T04:35:14;3.10;;;2.80;;
20138;SDS011;10230;51.502;10.800;2022-07-03T04:37:41;4.50;;;3.13;;
20138;SDS011;10230;51.502;10.800;2022-07-03T04:40:07;5.22;;;3.40;;
20138;SDS011;10230;51.502;10.800;2022-07-03T04:42:33;8.50;;;3.50;;
20138;SDS011;10230;51.502;10.800;2022-07-03T04:45:00;6.72;;;3.78;;
20138;SDS011;10230;51.502;10.800;2022-07-03T04:47:26;3.75;;;3.05;;
20138;SDS011;10230;51.502;10.800;2022-07-03T04:49:52;4.50;;;3.20;;
20138;SDS011;10230;51.502;10.800;2022-07-03T04:52:18;4.75;;;2.80;;
20138;SDS011;10230;51.502;10.800;2022-07-03T04:54:44;3.20;;;2.90;;
20138;SDS011;10230;51.502;10.800;2022-07-03T04:57:10;3.35;;;2.35;;
20138;SDS011;10230;51.502;10.800;2022-07-03T04:59:36;3.67;;;3.03;;
20138;SDS011;10230;51.502;10.800;2022-07-03T05:02:02;3.28;;;2.95;;
20138;SDS011;10230;51.502;10.800;2022-07-03T05:04:29;2.80;;;2.33;;
20138;SDS011;10230;51.502;10.800;2022-07-03T05:06:55;4.95;;;2.88;;
20138;SDS011;10230;51.502;10.800;2022-07-03T05:09:21;3.28;;;3.00;;
20138;SDS011;10230;51.502;10.800;2022-07-03T05:11:47;3.72;;;2.78;;
20138;SDS011;10230;51.502;10.800;2022-07-03T05:14:13;3.35;;;3.05;;
20138;SDS011;10230;51.502;10.800;2022-07-03T05:16:39;2.95;;;2.53;;
20138;SDS011;10230;51.502;10.800;2022-07-03T05:19:05;3.88;;;2.97;;
20138;SDS011;10230;51.502;10.800;2022-07-03T05:21:31;2.65;;;2.33;;
20138;SDS011;10230;51.502;10.800;2022-07-03T05:23:57;3.03;;;2.40;;
20138;SDS011;10230;51.502;10.800;2022-07-03T05:26:23;4.18;;;2.55;;
20138;SDS011;10230;51.502;10.800;2022-07-03T05:28:50;3.22;;;2.55;;
20138;SDS011;10230;51.502;10.800;2022-07-03T05:31:16;5.88;;;2.58;;
20138;SDS011;10230;51.502;10.800;2022-07-03T05:33:42;4.28;;;2.42;;
20138;SDS011;10230;51.502;10.800;2022-07-03T05:36:08;3.80;;;2.67;;
20138;SDS011;10230;51.502;10.800;2022-07-03T05:38:34;2.83;;;2.53;;
20138;SDS011;10230;51.502;10.800;2022-07-03T05:41:18;4.30;;;2.63;;
20138;SDS011;10230;51.502;10.800;2022-07-03T05:43:44;2.22;;;2.03;;
20138;SDS011;10230;51.502;10.800;2022-07-03T05:46:10;2.40;;;2.20;;
20138;SDS011;10230;51.502;10.800;2022-07-03T05:48:37;3.00;;;2.00;;
20138;SDS011;10230;51.502;10.800;2022-07-03T05:51:03;2.70;;;2.25;;
20138;SDS011;10230;51.502;10.800;2022-07-03T05:53:29;2.20;;;2.00;;
20138;SDS011;10230;51.502;10.800;2022-07-03T05:55:55;3.35;;;1.98;;
20138;SDS011;10230;51.502;10.800;2022-07-03T05:58:21;1.80;;;1.70;;
20138;SDS011;10230;51.502;10.800;2022-07-03T06:00:47;2.65;;;1.90;;
20138;SDS011;10230;51.502;10.800;2022-07-03T06:03:13;1.85;;;1.75;;
20138;SDS011;10230;51.502;10.800;2022-07-03T06:05:39;2.75;;;2.47;;
20138;SDS011;10230;51.502;10.800;2022-07-03T06:08:05;2.20;;;2.00;;
20138;SDS011;10230;51.502;10.800;2022-07-03T06:10:32;2.75;;;1.92;;
20138;SDS011;10230;51.502;10.800;2022-07-03T06:12:58;2.05;;;1.70;;
20138;SDS011;10230;51.502;10.800;2022-07-03T06:15:25;4.93;;;1.73;;
20138;SDS011;10230;51.502;10.800;2022-07-03T06:17:51;1.88;;;1.55;;
20138;SDS011;10230;51.502;10.800;2022-07-03T06:20:17;2.90;;;1.80;;
20138;SDS011;10230;51.502;10.800;2022-07-03T06:22:43;3.90;;;1.77;;
20138;SDS011;10230;51.502;10.800;2022-07-03T06:25:09;3.47;;;1.85;;
20138;SDS011;10230;51.502;10.800;2022-07-03T06:27:36;2.47;;;1.80;;
20138;SDS011;10230;51.502;10.800;2022-07-03T06:30:02;1.73;;;1.63;;
20138;SDS011;10230;51.502;10.800;2022-07-03T06:32:28;1.83;;;1.70;;
20138;SDS011;10230;51.502;10.800;2022-07-03T06:34:54;2.13;;;1.92;;
20138;SDS011;10230;51.502;10.800;2022-07-03T06:37:21;1.92;;;1.70;;
20138;SDS011;10230;51.502;10.800;2022-07-03T06:39:47;1.65;;;1.50;;
20138;SDS011;10230;51.502;10.800;2022-07-03T06:42:13;2.40;;;1.73;;
20138;SDS011;10230;51.502;10.800;2022-07-03T06:44:39;1.50;;;1.40;;
20138;SDS011;10230;51.502;10.800;2022-07-03T06:47:06;1.77;;;1.58;;
20138;SDS011;10230;51.502;10.800;2022-07-03T06:49:32;4.40;;;2.42;;
20138;SDS011;10230;51.502;10.800;2022-07-03T06:51:58;2.15;;;1.50;;
20138;SDS011;10230;51.502;10.800;2022-07-03T06:54:24;3.70;;;1.60;;
20138;SDS011;10230;51.502;10.800;2022-07-03T06:56:51;1.88;;;1.40;;
20138;SDS011;10230;51.502;10.800;2022-07-03T06:59:17;2.08;;;1.45;;
20138;SDS011;10230;51.502;10.800;2022-07-03T07:01:43;1.42;;;1.33;;
20138;SDS011;10230;51.502;10.800;2022-07-03T07:04:09;4.10;;;1.77;;
20138;SDS011;10230;51.502;10.800;2022-07-03T07:06:35;1.80;;;1.30;;
20138;SDS011;10230;51.502;10.800;2022-07-03T07:09:02;3.40;;;1.20;;
20138;SDS011;10230;51.502;10.800;2022-07-03T07:11:28;1.60;;;1.50;;
20138;SDS011;10230;51.502;10.800;2022-07-03T07:13:55;3.45;;;1.10;;
20138;SDS011;10230;51.502;10.800;2022-07-03T07:16:21;2.20;;;1.48;;
20138;SDS011;10230;51.502;10.800;2022-07-03T07:18:47;1.98;;;1.30;;
20138;SDS011;10230;51.502;10.800;2022-07-03T07:21:13;2.78;;;1.60;;
20138;SDS011;10230;51.502;10.800;2022-07-03T07:23:39;1.92;;;1.30;;
20138;SDS011;10230;51.502;10.800;2022-07-03T07:26:05;1.40;;;1.30;;
20138;SDS011;10230;51.502;10.800;2022-07-03T07:28:32;1.55;;;1.33;;
20138;SDS011;10230;51.502;10.800;2022-07-03T07:31:00;1.50;;;1.25;;
20138;SDS011;10230;51.502;10.800;2022-07-03T07:33:26;1.30;;;1.20;;
20138;SDS011;10230;51.502;10.800;2022-07-03T07:35:52;3.70;;;1.45;;
20138;SDS011;10230;51.502;10.800;2022-07-03T07:38:18;2.75;;;1.42;;
20138;SDS011;10230;51.502;10.800;2022-07-03T07:40:44;2.45;;;1.50;;
20138;SDS011;10230;51.502;10.800;2022-07-03T07:43:10;1.60;;;1.33;;
20138;SDS011;10230;51.502;10.800;2022-07-03T07:45:36;1.85;;;1.33;;
20138;SDS011;10230;51.502;10.800;2022-07-03T07:48:02;4.00;;;1.50;;
20138;SDS011;10230;51.502;10.800;2022-07-03T07:50:28;1.67;;;1.30;;
20138;SDS011;10230;51.502;10.800;2022-07-03T07:52:54;2.20;;;1.25;;
20138;SDS011;10230;51.502;10.800;2022-07-03T07:55:20;1.40;;;1.17;;
20138;SDS011;10230;51.502;10.800;2022-07-03T07:57:47;3.13;;;1.40;;
20138;SDS011;10230;51.502;10.800;2022-07-03T08:00:14;1.38;;;1.27;;
20138;SDS011;10230;51.502;10.800;2022-07-03T08:02:40;2.67;;;1.30;;
20138;SDS011;10230;51.502;10.800;2022-07-03T08:05:26;2.38;;;1.40;;
20138;SDS011;10230;51.502;10.800;2022-07-03T08:08:04;1.55;;;1.30;;
20138;SDS011;10230;51.502;10.800;2022-07-03T08:10:33;2.20;;;1.30;;
20138;SDS011;10230;51.502;10.800;2022-07-03T08:13:00;1.58;;;1.42;;
20138;SDS011;10230;51.502;10.800;2022-07-03T08:15:25;2.38;;;1.70;;
20138;SDS011;10230;51.502;10.800;2022-07-03T08:17:51;2.88;;;1.58;;
20138;SDS011;10230;51.502;10.800;2022-07-03T08:20:17;1.42;;;1.27;;
20138;SDS011;10230;51.502;10.800;2022-07-03T08:22:43;2.60;;;1.77;;
20138;SDS011;10230;51.502;10.800;2022-07-03T08:25:09;2.45;;;1.02;;
20138;SDS011;10230;51.502;10.800;2022-07-03T08:27:35;3.10;;;1.40;;
20138;SDS011;10230;51.502;10.800;2022-07-03T08:30:01;2.55;;;1.25;;
20138;SDS011;10230;51.502;10.800;2022-07-03T08:32:27;2.90;;;1.45;;
20138;SDS011;10230;51.502;10.800;2022-07-03T08:44:37;3.10;;;1.02;;
20138;SDS011;10230;51.502;10.800;2022-07-03T08:47:04;1.55;;;0.70;;
20138;SDS011;10230;51.502;10.800;2022-07-03T08:49:36;2.80;;;0.82;;
20138;SDS011;10230;51.502;10.800;2022-07-03T08:52:02;1.23;;;1.10;;
20138;SDS011;10230;51.502;10.800;2022-07-03T08:54:32;1.00;;;1.00;;
20138;SDS011;10230;51.502;10.800;2022-07-03T08:56:59;3.13;;;0.88;;
20138;SDS011;10230;51.502;10.800;2022-07-03T08:59:26;2.05;;;1.05;;
20138;SDS011;10230;51.502;10.800;2022-07-03T09:01:57;1.20;;;1.10;;
20138;SDS011;10230;51.502;10.800;2022-07-03T09:04:23;2.08;;;0.90;;
20138;SDS011;10230;51.502;10.800;2022-07-03T09:06:49;1.33;;;1.23;;
20138;SDS011;10230;51.502;10.800;2022-07-03T09:09:15;1.23;;;1.00;;
20138;SDS011;10230;51.502;10.800;2022-07-03T09:11:41;1.48;;;1.38;;
20138;SDS011;10230;51.502;10.800;2022-07-03T09:14:07;1.48;;;1.30;;
20138;SDS011;10230;51.502;10.800;2022-07-03T09:16:36;1.80;;;1.30;;
20138;SDS011;10230;51.502;10.800;2022-07-03T09:19:02;1.45;;;1.10;;
20138;SDS011;10230;51.502;10.800;2022-07-03T09:21:39;2.25;;;1.98;;
20138;SDS011;10230;51.502;10.800;2022-07-03T09:24:06;1.10;;;1.10;;
20138;SDS011;10230;51.502;10.800;2022-07-03T09:26:33;1.70;;;1.15;;
20138;SDS011;10230;51.502;10.800;2022-07-03T09:29:00;1.52;;;1.42;;
20138;SDS011;10230;51.502;10.800;2022-07-03T09:31:28;1.85;;;1.30;;
20138;SDS011;10230;51.502;10.800;2022-07-03T09:34:04;3.53;;;1.30;;
20138;SDS011;10230;51.502;10.800;2022-07-03T09:36:42;1.60;;;1.50;;
20138;SDS011;10230;51.502;10.800;2022-07-03T09:39:30;1.60;;;1.60;;
20138;SDS011;10230;51.502;10.800;2022-07-03T09:42:08;3.55;;;1.80;;
20138;SDS011;10230;51.502;10.800;2022-07-03T09:44:43;2.35;;;1.80;;
20138;SDS011;10230;51.502;10.800;2022-07-03T09:47:16;2.83;;;1.70;;
20138;SDS011;10230;51.502;10.800;2022-07-03T09:49:49;1.92;;;1.40;;
20138;SDS011;10230;51.502;10.800;2022-07-03T09:52:32;2.63;;;1.80;;
20138;SDS011;10230;51.502;10.800;2022-07-03T09:55:12;1.58;;;1.48;;
20138;SDS011;10230;51.502;10.800;2022-07-03T10:00:21;1.35;;;1.35;;
20138;SDS011;10230;51.502;10.800;2022-07-03T10:08:08;1.27;;;1.17;;
20138;SDS011;10230;51.502;10.800;2022-07-03T10:10:39;1.40;;;1.30;;
20138;SDS011;10230;51.502;10.800;2022-07-03T10:13:08;1.70;;;1.60;;
20138;SDS011;10230;51.502;10.800;2022-07-03T10:15:35;1.30;;;1.20;;
20138;SDS011;10230;51.502;10.800;2022-07-03T10:18:03;1.38;;;1.20;;
20138;SDS011;10230;51.502;10.800;2022-07-03T10:20:34;1.00;;;1.00;;
20138;SDS011;10230;51.502;10.800;2022-07-03T10:23:04;1.10;;;1.10;;
20138;SDS011;10230;51.502;10.800;2022-07-03T10:25:30;2.28;;;1.27;;
20138;SDS011;10230;51.502;10.800;2022-07-03T10:27:56;1.20;;;1.10;;
20138;SDS011;10230;51.502;10.800;2022-07-03T10:30:23;2.72;;;2.10;;
20138;SDS011;10230;51.502;10.800;2022-07-03T10:32:51;2.00;;;1.90;;
20138;SDS011;10230;51.502;10.800;2022-07-03T10:35:34;1.77;;;1.50;;
20138;SDS011;10230;51.502;10.800;2022-07-03T10:40:33;0.90;;;0.90;;
20138;SDS011;10230;51.502;10.800;2022-07-03T10:43:35;1.20;;;0.80;;
20138;SDS011;10230;51.502;10.800;2022-07-03T10:46:22;1.05;;;0.95;;
20138;SDS011;10230;51.502;10.800;2022-07-03T10:51:20;0.80;;;0.80;;
20138;SDS011;10230;51.502;10.800;2022-07-03T11:01:05;0.98;;;0.80;;
20138;SDS011;10230;51.502;10.800;2022-07-03T11:03:51;1.55;;;0.50;;
20138;SDS011;10230;51.502;10.800;2022-07-03T11:06:22;2.03;;;0.65;;
20138;SDS011;10230;51.502;10.800;2022-07-03T11:09:08;0.73;;;0.57;;
20138;SDS011;10230;51.502;10.800;2022-07-03T11:11:44;1.95;;;0.80;;
20138;SDS011;10230;51.502;10.800;2022-07-03T11:14:20;3.17;;;0.98;;
20138;SDS011;10230;51.502;10.800;2022-07-03T11:16:47;1.27;;;0.80;;
20138;SDS011;10230;51.502;10.800;2022-07-03T11:19:13;1.73;;;1.63;;
20138;SDS011;10230;51.502;10.800;2022-07-03T11:21:41;1.20;;;1.13;;
20138;SDS011;10230;51.502;10.800;2022-07-03T11:24:35;1.75;;;1.27;;
20138;SDS011;10230;51.502;10.800;2022-07-03T11:27:16;1.92;;;1.10;;
20138;SDS011;10230;51.502;10.800;2022-07-03T11:29:48;2.67;;;1.00;;
20138;SDS011;10230;51.502;10.800;2022-07-03T11:38:17;0.80;;;0.80;;
20138;SDS011;10230;51.502;10.800;2022-07-03T11:40:48;2.40;;;0.80;;
20138;SDS011;10230;51.502;10.800;2022-07-03T11:43:15;1.95;;;0.90;;
20138;SDS011;10230;51.502;10.800;2022-07-03T11:45:41;1.40;;;0.77;;
20138;SDS011;10230;51.502;10.800;2022-07-03T11:48:14;0.60;;;0.60;;
20138;SDS011;10230;51.502;10.800;2022-07-03T11:50:43;0.60;;;0.50;;
20138;SDS011;10230;51.502;10.800;2022-07-03T11:56:13;0.70;;;0.70;;
20138;SDS011;10230;51.502;10.800;2022-07-03T12:01:10;1.65;;;0.40;;
20138;SDS011;10230;51.502;10.800;2022-07-03T12:03:49;1.30;;;0.70;;
20138;SDS011;10230;51.502;10.800;2022-07-03T12:06:15;1.40;;;0.70;;
20138;SDS011;10230;51.502;10.800;2022-07-03T12:08:41;0.60;;;0.55;;
20138;SDS011;10230;51.502;10.800;2022-07-03T12:11:11;1.20;;;0.60;;
20138;SDS011;10230;51.502;10.800;2022-07-03T12:13:38;0.73;;;0.65;;
20138;SDS011;10230;51.502;10.800;2022-07-03T12:16:04;2.78;;;0.63;;
20138;SDS011;10230;51.502;10.800;2022-07-03T12:18:47;0.40;;;0.40;;
20138;SDS011;10230;51.502;10.800;2022-07-03T12:21:14;1.60;;;0.50;;
20138;SDS011;10230;51.502;10.800;2022-07-03T12:26:06;0.60;;;0.50;;
20138;SDS011;10230;51.502;10.800;2022-07-03T12:28:32;0.88;;;0.65;;
20138;SDS011;10230;51.502;10.800;2022-07-03T12:30:58;0.70;;;0.70;;
20138;SDS011;10230;51.502;10.800;2022-07-03T12:33:24;0.70;;;0.70;;
20138;SDS011;10230;51.502;10.800;2022-07-03T12:36:07;0.70;;;0.50;;
20138;SDS011;10230;51.502;10.800;2022-07-03T12:38:33;1.20;;;0.70;;
20138;SDS011;10230;51.502;10.800;2022-07-03T12:41:03;1.10;;;0.73;;
20138;SDS011;10230;51.502;10.800;2022-07-03T12:43:39;1.10;;;0.90;;
20138;SDS011;10230;51.502;10.800;2022-07-03T12:48:57;1.88;;;1.23;;
20138;SDS011;10230;51.502;10.800;2022-07-03T12:54:12;1.40;;;0.60;;
20138;SDS011;10230;51.502;10.800;2022-07-03T12:56:39;1.33;;;0.70;;
20138;SDS011;10230;51.502;10.800;2022-07-03T12:59:05;1.23;;;0.80;;
20138;SDS011;10230;51.502;10.800;2022-07-03T13:01:44;0.75;;;0.70;;
20138;SDS011;10230;51.502;10.800;2022-07-03T17:11:04;1.65;;;1.10;;
20138;SDS011;10230;51.502;10.800;2022-07-03T17:13:30;1.20;;;0.90;;
20138;SDS011;10230;51.502;10.800;2022-07-03T17:15:57;2.03;;;0.63;;
20138;SDS011;10230;51.502;10.800;2022-07-03T17:18:28;1.92;;;1.15;;
20138;SDS011;10230;51.502;10.800;2022-07-03T17:21:00;2.65;;;1.55;;
20138;SDS011;10230;51.502;10.800;2022-07-03T17:23:28;3.58;;;1.40;;
20138;SDS011;10230;51.502;10.800;2022-07-03T17:26:01;8.05;;;1.20;;
20138;SDS011;10230;51.502;10.800;2022-07-03T17:28:29;4.80;;;1.98;;
20138;SDS011;10230;51.502;10.800;2022-07-03T17:30:58;3.30;;;1.77;;
20138;SDS011;10230;51.502;10.800;2022-07-03T17:33:25;5.30;;;1.00;;
20138;SDS011;10230;51.502;10.800;2022-07-03T17:36:02;5.55;;;1.20;;
20138;SDS011;10230;51.502;10.800;2022-07-03T17:38:29;1.45;;;1.05;;
20138;SDS011;10230;51.502;10.800;2022-07-03T17:40:57;2.03;;;1.00;;
20138;SDS011;10230;51.502;10.800;2022-07-03T17:43:25;4.30;;;0.90;;
20138;SDS011;10230;51.502;10.800;2022-07-03T17:45:51;3.08;;;1.05;;
20138;SDS011;10230;51.502;10.800;2022-07-03T17:48:17;1.42;;;1.02;;
20138;SDS011;10230;51.502;10.800;2022-07-03T17:50:43;1.83;;;0.80;;
20138;SDS011;10230;51.502;10.800;2022-07-03T17:53:11;2.13;;;0.93;;
20138;SDS011;10230;51.502;10.800;2022-07-03T17:55:40;1.52;;;0.77;;
20138;SDS011;10230;51.502;10.800;2022-07-03T17:58:08;2.08;;;1.08;;
20138;SDS011;10230;51.502;10.800;2022-07-03T18:00:34;3.13;;;2.22;;
20138;SDS011;10230;51.502;10.800;2022-07-03T18:03:00;2.45;;;0.80;;
20138;SDS011;10230;51.502;10.800;2022-07-03T18:05:26;1.80;;;1.10;;
20138;SDS011;10230;51.502;10.800;2022-07-03T18:07:55;2.13;;;1.25;;
20138;SDS011;10230;51.502;10.800;2022-07-03T18:10:24;2.03;;;1.15;;
20138;SDS011;10230;51.502;10.800;2022-07-03T18:15:34;2.00;;;1.30;;
20138;SDS011;10230;51.502;10.800;2022-07-03T18:18:04;1.60;;;0.90;;
20138;SDS011;10230;51.502;10.800;2022-07-03T18:20:30;4.30;;;1.13;;
20138;SDS011;10230;51.502;10.800;2022-07-03T18:22:58;2.45;;;1.15;;
20138;SDS011;10230;51.502;10.800;2022-07-03T18:25:25;2.35;;;1.52;;
20138;SDS011;10230;51.502;10.800;2022-07-03T18:27:54;2.83;;;1.30;;
20138;SDS011;10230;51.502;10.800;2022-07-03T18:30:22;3.08;;;1.45;;
20138;SDS011;10230;51.502;10.800;2022-07-03T18:32:49;1.73;;;1.40;;
20138;SDS011;10230;51.502;10.800;2022-07-03T18:35:15;2.58;;;1.50;;
20138;SDS011;10230;51.502;10.800;2022-07-03T18:37:41;2.25;;;0.98;;
20138;SDS011;10230;51.502;10.800;2022-07-03T18:40:11;1.17;;;1.00;;
20138;SDS011;10230;51.502;10.800;2022-07-03T18:42:37;2.70;;;1.27;;
20138;SDS011;10230;51.502;10.800;2022-07-03T18:45:03;4.88;;;1.20;;
20138;SDS011;10230;51.502;10.800;2022-07-03T18:47:29;1.35;;;1.05;;
20138;SDS011;10230;51.502;10.800;2022-07-03T18:49:55;4.95;;;1.45;;
20138;SDS011;10230;51.502;10.800;2022-07-03T18:52:57;1.83;;;0.98;;
20138;SDS011;10230;51.502;10.800;2022-07-03T18:57:48;5.20;;;1.65;;
20138;SDS011;10230;51.502;10.800;2022-07-03T19:00:16;5.32;;;1.10;;
20138;SDS011;10230;51.502;10.800;2022-07-03T19:05:34;4.47;;;1.60;;
20138;SDS011;10230;51.502;10.800;2022-07-03T19:08:05;4.85;;;1.30;;
20138;SDS011;10230;51.502;10.800;2022-07-03T19:10:33;2.15;;;1.50;;
20138;SDS011;10230;51.502;10.800;2022-07-03T19:13:07;2.03;;;1.45;;
20138;SDS011;10230;51.502;10.800;2022-07-03T19:15:36;6.93;;;1.45;;
20138;SDS011;10230;51.502;10.800;2022-07-03T19:18:03;4.22;;;1.27;;
20138;SDS011;10230;51.502;10.800;2022-07-03T19:20:29;3.78;;;1.40;;
20138;SDS011;10230;51.502;10.800;2022-07-03T19:22:55;2.13;;;1.08;;
20138;SDS011;10230;51.502;10.800;2022-07-03T19:25:23;5.10;;;1.75;;
20138;SDS011;10230;51.502;10.800;2022-07-03T19:27:49;2.65;;;0.90;;
20138;SDS011;10230;51.502;10.800;2022-07-03T19:30:17;2.33;;;1.13;;
20138;SDS011;10230;51.502;10.800;2022-07-03T19:32:43;1.13;;;0.80;;
20138;SDS011;10230;51.502;10.800;2022-07-03T19:35:10;1.83;;;1.08;;
20138;SDS011;10230;51.502;10.800;2022-07-03T19:37:36;3.08;;;1.50;;
20138;SDS011;10230;51.502;10.800;2022-07-03T19:40:03;1.95;;;1.13;;
20138;SDS011;10230;51.502;10.800;2022-07-03T19:42:29;3.25;;;1.52;;
20138;SDS011;10230;51.502;10.800;2022-07-03T19:44:55;8.43;;;3.45;;
20138;SDS011;10230;51.502;10.800;2022-07-03T19:47:21;6.20;;;2.38;;
20138;SDS011;10230;51.502;10.800;2022-07-03T19:49:47;7.55;;;2.05;;
20138;SDS011;10230;51.502;10.800;2022-07-03T19:52:13;1.83;;;1.33;;
20138;SDS011;10230;51.502;10.800;2022-07-03T19:54:39;5.10;;;1.60;;
20138;SDS011;10230;51.502;10.800;2022-07-03T19:57:06;4.57;;;1.50;;
20138;SDS011;10230;51.502;10.800;2022-07-03T19:59:32;4.63;;;1.70;;
20138;SDS011;10230;51.502;10.800;2022-07-03T20:01:58;2.33;;;1.70;;
20138;SDS011;10230;51.502;10.800;2022-07-03T20:04:24;4.53;;;1.55;;
20138;SDS011;10230;51.502;10.800;2022-07-03T20:06:50;2.85;;;1.40;;
20138;SDS011;10230;51.502;10.800;2022-07-03T20:09:17;4.13;;;1.40;;
20138;SDS011;10230;51.502;10.800;2022-07-03T20:11:47;2.13;;;1.33;;
20138;SDS011;10230;51.502;10.800;2022-07-03T20:14:13;2.83;;;1.58;;